createdAt,value
2018-12-24T00:00:38.073Z,101528.64
2018-12-24T00:03:06.961Z,101521.66
2018-12-24T00:05:35.772Z,101525.41
2018-12-24T00:08:04.811Z,101532.64
2018-12-24T00:10:47.259Z,101532.95
2018-12-24T00:13:16.058Z,101541.73
2018-12-24T00:15:45.068Z,101555.05
2018-12-24T00:18:13.859Z,101555.70
2018-12-24T00:20:42.618Z,101563.39
2018-12-24T00:23:22.196Z,101565.77
2018-12-24T00:25:51.010Z,101568.40
2018-12-24T00:28:19.881Z,101574.20
2018-12-24T00:30:48.719Z,101577.92
2018-12-24T00:33:17.930Z,101576.27
2018-12-24T00:35:46.773Z,101584.97
2018-12-24T00:38:15.567Z,101584.12
2018-12-24T00:40:44.336Z,101593.86
2018-12-24T00:43:13.096Z,101599.33
2018-12-24T00:45:41.883Z,101606.91
2018-12-24T00:48:10.669Z,101606.56
2018-12-24T00:50:39.496Z,101626.27
2018-12-24T00:53:08.889Z,101620.75
2018-12-24T00:55:37.655Z,101627.69
2018-12-24T00:58:06.510Z,101634.08
2018-12-24T01:00:35.256Z,101644.18
2018-12-24T01:03:04.056Z,101650.89
2018-12-24T01:05:35.721Z,101660.50
2018-12-24T01:08:04.784Z,101659.69
2018-12-24T01:10:33.578Z,101674.91
2018-12-24T01:13:02.471Z,101677.53
2018-12-24T01:15:31.283Z,101682.22
2018-12-24T01:18:00.047Z,101691.24
2018-12-24T01:20:28.923Z,101695.13
2018-12-24T01:22:57.706Z,101698.25
2018-12-24T01:25:26.469Z,101705.56
2018-12-24T01:27:55.273Z,101714.22
2018-12-24T01:30:24.103Z,101715.03
2018-12-24T01:32:53.014Z,101715.23
2018-12-24T01:35:22.183Z,101724.10
2018-12-24T01:37:50.965Z,101726.97
2018-12-24T01:40:19.738Z,101742.67
2018-12-24T01:42:48.502Z,101740.83
2018-12-24T01:45:17.306Z,101746.80
2018-12-24T01:47:46.416Z,101754.27
2018-12-24T01:50:15.297Z,101758.66
2018-12-24T01:52:44.047Z,101764.08
2018-12-24T01:55:12.957Z,101765.42
2018-12-24T01:57:41.721Z,101768.86
2018-12-24T02:00:10.479Z,101784.07
2018-12-24T02:02:39.298Z,101787.48
2018-12-24T02:05:09.770Z,101793.37
2018-12-24T02:07:38.641Z,101802.89
2018-12-24T02:10:07.449Z,101806.74
2018-12-24T02:12:42.262Z,101806.37
2018-12-24T02:15:06.919Z,101820.88
2018-12-24T02:17:35.948Z,101821.42
2018-12-24T02:20:05.303Z,101829.72
2018-12-24T02:22:34.112Z,101835.77
2018-12-24T02:25:03.061Z,101838.14
2018-12-24T02:27:31.804Z,101851.73
2018-12-24T02:30:00.577Z,101855.84
2018-12-24T02:32:29.391Z,101842.89
2018-12-24T02:34:58.164Z,101862.86
2018-12-24T02:37:26.948Z,101871.55
2018-12-24T02:39:58.534Z,101872.84
2018-12-24T02:42:27.290Z,101877.70
2018-12-24T02:44:56.468Z,101879.02
2018-12-24T02:47:25.228Z,101885.42
2018-12-24T02:49:54.333Z,101887.13
2018-12-24T02:52:23.152Z,101884.66
2018-12-24T02:54:51.909Z,101895.19
2018-12-24T02:57:20.711Z,101899.04
2018-12-24T02:59:50.627Z,101905.13
2018-12-24T03:02:19.422Z,101912.36
2018-12-24T03:04:48.270Z,101914.52
2018-12-24T03:07:17.108Z,101920.70
2018-12-24T03:09:45.924Z,101923.26
2018-12-24T03:12:14.699Z,101932.53
2018-12-24T03:14:43.628Z,101941.17
2018-12-24T03:17:12.429Z,101940.31
2018-12-24T03:19:41.710Z,101948.31
2018-12-24T03:22:10.588Z,101949.61
2018-12-24T03:24:39.346Z,101956.50
2018-12-24T03:27:08.420Z,101960.67
2018-12-24T03:29:37.296Z,101962.30
2018-12-24T03:32:06.124Z,101967.99
2018-12-24T03:34:35.367Z,101979.22
2018-12-24T03:37:04.153Z,101987.23
2018-12-24T03:39:32.911Z,101991.22
2018-12-24T03:42:02.006Z,101991.71
2018-12-24T03:44:30.855Z,102001.67
2018-12-24T03:46:59.677Z,102003.69
2018-12-24T03:49:29.491Z,102018.20
2018-12-24T03:51:58.268Z,102025.37
2018-12-24T03:54:27.078Z,102027.42
2018-12-24T03:56:55.870Z,102037.58
2018-12-24T03:59:24.673Z,102031.13
2018-12-24T04:01:53.710Z,102038.55
2018-12-24T04:04:22.479Z,102047.63
2018-12-24T04:06:51.269Z,102055.66
2018-12-24T04:09:20.101Z,102057.98
2018-12-24T04:11:48.917Z,102058.11
2018-12-24T04:14:17.681Z,102064.96
2018-12-24T04:16:46.584Z,102065.56
2018-12-24T04:19:15.714Z,102077.61
2018-12-24T04:21:44.465Z,102081.11
2018-12-24T04:24:13.250Z,102079.67
2018-12-24T04:26:42.094Z,102089.41
2018-12-24T04:29:11.152Z,102088.08
2018-12-24T04:31:39.932Z,102090.02
2018-12-24T04:34:08.721Z,102090.50
2018-12-24T04:36:37.514Z,102097.03
2018-12-24T04:39:07.092Z,102100.44
2018-12-24T04:41:36.023Z,102106.92
2018-12-24T04:44:04.822Z,102105.92
2018-12-24T04:46:33.693Z,102106.47
2018-12-24T04:49:02.704Z,102109.88
2018-12-24T04:51:31.765Z,102114.27
2018-12-24T04:54:00.519Z,102118.25
2018-12-24T04:56:29.306Z,102121.05
2018-12-24T04:58:58.104Z,102132.39
2018-12-24T05:01:26.922Z,102142.72
2018-12-24T05:03:56.023Z,102152.52
2018-12-24T05:06:24.769Z,102162.55
2018-12-24T05:08:53.662Z,102172.59
2018-12-24T05:11:22.422Z,102187.06
2018-12-24T05:13:51.229Z,102208.42
2018-12-24T05:16:19.981Z,102216.55
2018-12-24T05:18:48.850Z,102233.06
2018-12-24T05:21:17.642Z,102246.44
2018-12-24T05:23:46.411Z,102251.09
2018-12-24T05:26:15.250Z,102250.29
2018-12-24T05:28:44.140Z,102261.81
2018-12-24T05:31:12.900Z,102275.14
2018-12-24T05:33:41.733Z,102285.04
2018-12-24T05:36:10.581Z,102299.10
2018-12-24T05:38:39.346Z,102295.13
2018-12-24T05:41:08.105Z,102315.30
2018-12-24T05:43:37.188Z,102321.33
2018-12-24T05:46:06.069Z,102317.48
2018-12-24T05:48:34.871Z,102328.73
2018-12-24T05:51:03.716Z,102336.90
2018-12-24T05:53:32.475Z,102349.06
2018-12-24T05:56:01.244Z,102346.14
2018-12-24T05:58:32.971Z,102358.69
2018-12-24T06:01:02.107Z,102357.00
2018-12-24T06:03:30.889Z,102360.17
2018-12-24T06:05:59.759Z,102368.02
2018-12-24T06:08:28.556Z,102379.30
2018-12-24T06:10:57.379Z,102384.88
2018-12-24T06:13:26.242Z,102390.05
2018-12-24T06:15:55.013Z,102391.39
2018-12-24T06:18:23.805Z,102395.70
2018-12-24T06:20:52.570Z,102399.08
2018-12-24T06:23:21.381Z,102407.38
2018-12-24T06:25:50.170Z,102419.95
2018-12-24T06:28:19.217Z,102423.48
2018-12-24T06:30:48.041Z,102438.75
2018-12-24T06:33:16.843Z,102440.52
2018-12-24T06:35:45.662Z,102447.44
2018-12-24T06:38:14.665Z,102455.27
2018-12-24T06:40:43.437Z,102464.88
2018-12-24T06:43:12.218Z,102466.16
2018-12-24T06:45:41.016Z,102473.90
2018-12-24T06:48:09.786Z,102485.78
2018-12-24T06:50:38.553Z,102485.75
2018-12-24T06:53:07.351Z,102490.97
2018-12-24T06:55:36.125Z,102494.94
2018-12-24T06:58:04.951Z,102497.06
2018-12-24T07:00:33.822Z,102495.86
2018-12-24T07:03:02.607Z,102491.02
2018-12-24T07:05:31.745Z,102486.14
2018-12-24T07:08:00.646Z,102491.45
2018-12-24T07:10:29.503Z,102493.59
2018-12-24T07:12:58.344Z,102506.30
2018-12-24T07:15:27.175Z,102509.84
2018-12-24T07:17:55.992Z,102509.36
2018-12-24T07:20:25.047Z,102508.13
2018-12-24T07:22:53.808Z,102509.84
2018-12-24T07:25:22.594Z,102504.12
2018-12-24T07:27:51.373Z,102511.05
2018-12-24T07:30:20.152Z,102524.52
2018-12-24T07:32:48.969Z,102521.87
2018-12-24T07:35:18.428Z,102531.15
2018-12-24T07:37:48.193Z,102535.48
2018-12-24T07:40:17.325Z,102544.16
2018-12-24T07:42:46.172Z,102545.41
2018-12-24T07:45:14.944Z,102551.13
2018-12-24T07:47:43.906Z,102550.23
2018-12-24T07:50:12.779Z,102558.48
2018-12-24T07:52:41.553Z,102562.80
2018-12-24T07:55:10.351Z,102564.17
2018-12-24T07:57:39.128Z,102565.00
2018-12-24T08:00:08.360Z,102576.80
2018-12-24T08:02:37.142Z,102597.22
2018-12-24T08:05:06.058Z,102605.45
2018-12-24T08:07:34.838Z,102614.16
2018-12-24T08:10:03.953Z,102617.23
2018-12-24T08:12:32.719Z,102624.66
2018-12-24T08:15:01.513Z,102624.67
2018-12-24T08:17:30.536Z,102634.21
2018-12-24T08:19:59.421Z,102644.20
2018-12-24T08:22:28.289Z,102651.17
2018-12-24T08:24:57.237Z,102654.20
2018-12-24T08:27:26.365Z,102656.42
2018-12-24T08:29:55.147Z,102666.84
2018-12-24T08:32:23.977Z,102668.56
2018-12-24T08:34:53.064Z,102678.60
2018-12-24T08:37:21.821Z,102684.66
2018-12-24T08:39:50.672Z,102685.56
2018-12-24T08:42:19.531Z,102687.73
2018-12-24T08:44:48.425Z,102690.33
2018-12-24T08:47:17.335Z,102696.42
2018-12-24T08:49:46.136Z,102703.38
2018-12-24T08:52:15.016Z,102715.99
2018-12-24T08:54:43.806Z,102718.16
2018-12-24T08:57:12.717Z,102722.52
2018-12-24T08:59:41.587Z,102723.84
2018-12-24T09:02:10.480Z,102723.39
2018-12-24T09:04:39.382Z,102724.25
2018-12-24T09:07:08.167Z,102732.09
2018-12-24T09:09:37.203Z,102731.21
2018-12-24T09:12:07.721Z,102736.42
2018-12-24T09:14:36.832Z,102746.86
2018-12-24T09:17:05.806Z,102744.27
2018-12-24T09:19:51.888Z,102744.69
2018-12-24T09:22:21.233Z,102744.27
2018-12-24T09:24:54.397Z,102748.63
2018-12-24T09:27:25.722Z,102747.75
2018-12-24T09:29:54.604Z,102757.33
2018-12-24T09:32:23.597Z,102759.95
2018-12-24T09:34:52.647Z,102753.41
2018-12-24T09:37:21.438Z,102763.85
2018-12-24T09:39:50.187Z,102764.27
2018-12-24T09:42:18.988Z,102752.95
2018-12-24T09:44:48.008Z,102767.31
2018-12-24T09:47:16.788Z,102758.62
2018-12-24T09:49:45.626Z,102763.84
2018-12-24T09:52:14.445Z,102765.12
2018-12-24T09:54:43.239Z,102766.01
2018-12-24T09:57:12.027Z,102773.41
2018-12-24T09:59:41.280Z,102771.64
2018-12-24T10:02:10.357Z,102768.60
2018-12-24T10:04:47.874Z,102777.72
2018-12-24T10:07:40.076Z,102773.36
2018-12-24T10:10:26.899Z,102778.17
2018-12-24T10:13:01.327Z,102777.30
2018-12-24T10:15:37.738Z,102780.34
2018-12-24T10:18:14.093Z,102787.30
2018-12-24T10:20:42.861Z,102792.93
2018-12-24T10:23:11.628Z,102789.45
2018-12-24T10:25:40.867Z,102797.27
2018-12-24T10:28:09.745Z,102801.19
2018-12-24T10:30:39.366Z,102802.52
2018-12-24T10:33:08.175Z,102803.80
2018-12-24T10:35:37.197Z,102814.71
2018-12-24T10:38:05.966Z,102799.94
2018-12-24T10:40:39.674Z,102820.36
2018-12-24T10:43:09.229Z,102823.39
2018-12-24T10:45:38.571Z,102818.19
2018-12-24T10:48:07.525Z,102824.66
2018-12-24T10:50:36.303Z,102830.32
2018-12-24T10:53:05.468Z,102828.09
2018-12-24T10:55:34.388Z,102824.16
2018-12-24T10:58:04.268Z,102829.84
2018-12-24T11:00:33.084Z,102822.86
2018-12-24T11:03:02.504Z,102815.06
2018-12-24T11:05:34.181Z,102822.45
2018-12-24T11:08:02.966Z,102815.08
2018-12-24T11:10:32.117Z,102820.75
2018-12-24T11:13:00.992Z,102823.34
2018-12-24T11:15:29.874Z,102829.45
2018-12-24T11:17:58.754Z,102833.78
2018-12-24T11:20:27.685Z,102834.66
2018-12-24T11:22:56.809Z,102821.58
2018-12-24T11:25:26.101Z,102812.46
2018-12-24T11:27:56.424Z,102809.38
2018-12-24T11:30:25.187Z,102817.67
2018-12-24T11:32:55.101Z,102819.85
2018-12-24T11:35:30.298Z,102805.44
2018-12-24T11:37:59.088Z,102801.97
2018-12-24T11:40:27.978Z,102805.90
2018-12-24T11:42:56.805Z,102799.36
2018-12-24T11:45:45.430Z,102800.66
2018-12-24T11:48:14.255Z,102799.39
2018-12-24T11:50:43.200Z,102807.61
2018-12-24T11:53:11.993Z,102808.52
2018-12-24T11:55:40.843Z,102802.50
2018-12-24T11:58:18.712Z,102804.68
2018-12-24T12:00:48.070Z,102810.73
2018-12-24T12:03:16.899Z,102817.22
2018-12-24T12:05:45.879Z,102824.69
2018-12-24T12:08:14.704Z,102829.41
2018-12-24T12:10:43.480Z,102827.70
2018-12-24T12:13:12.309Z,102825.14
2018-12-24T12:15:42.679Z,102827.75
2018-12-24T12:18:11.587Z,102834.20
2018-12-24T12:20:40.613Z,102835.51
2018-12-24T12:23:09.354Z,102828.56
2018-12-24T12:25:38.169Z,102825.57
2018-12-24T12:28:07.224Z,102825.07
2018-12-24T12:30:35.979Z,102837.14
2018-12-24T12:33:04.876Z,102833.14
2018-12-24T12:35:33.922Z,102840.19
2018-12-24T12:38:03.074Z,102838.07
2018-12-24T12:40:31.875Z,102839.83
2018-12-24T12:43:00.664Z,102835.34
2018-12-24T12:45:29.577Z,102840.13
2018-12-24T12:47:58.384Z,102834.02
2018-12-24T12:50:27.440Z,102842.81
2018-12-24T12:52:56.286Z,102844.55
2018-12-24T12:55:25.104Z,102838.86
2018-12-24T12:57:53.912Z,102847.61
2018-12-24T13:00:22.907Z,102847.64
2018-12-24T13:02:52.021Z,102848.57
2018-12-24T13:05:20.792Z,102855.52
2018-12-24T13:07:49.566Z,102853.80
2018-12-24T13:10:18.349Z,102868.08
2018-12-24T13:12:47.461Z,102870.27
2018-12-24T13:15:16.274Z,102860.72
2018-12-24T13:17:45.372Z,102858.57
2018-12-24T13:20:14.147Z,102862.49
2018-12-24T13:22:42.929Z,102860.73
2018-12-24T13:25:11.694Z,102860.27
2018-12-24T13:27:40.491Z,102852.91
2018-12-24T13:30:09.343Z,102856.37
2018-12-24T13:32:38.092Z,102851.56
2018-12-24T13:35:07.247Z,102860.28
2018-12-24T13:37:36.064Z,102855.90
2018-12-24T13:40:04.967Z,102861.58
2018-12-24T13:42:33.739Z,102858.56
2018-12-24T13:45:02.507Z,102853.80
2018-12-24T13:47:31.516Z,102859.89
2018-12-24T13:50:00.309Z,102861.59
2018-12-24T13:52:34.424Z,102862.92
2018-12-24T13:55:11.497Z,102860.31
2018-12-24T13:57:41.643Z,102854.69
2018-12-24T14:00:12.547Z,102841.62
2018-12-24T14:02:42.121Z,102831.97
2018-12-24T14:05:11.242Z,102838.05
2018-12-24T14:07:40.643Z,102842.85
2018-12-24T14:10:12.268Z,102834.58
2018-12-24T14:12:41.739Z,102843.80
2018-12-24T14:15:18.947Z,102845.95
2018-12-24T14:17:47.766Z,102858.57
2018-12-24T14:20:16.540Z,102858.57
2018-12-24T14:22:45.470Z,102869.48
2018-12-24T14:25:14.693Z,102864.28
2018-12-24T14:27:43.537Z,102872.13
2018-12-24T14:30:12.651Z,102863.84
2018-12-24T14:32:43.178Z,102865.58
2018-12-24T14:35:11.988Z,102865.14
2018-12-24T14:37:40.864Z,102879.96
2018-12-24T14:40:09.655Z,102874.70
2018-12-24T14:42:38.492Z,102873.41
2018-12-24T14:45:08.006Z,102859.91
2018-12-24T14:47:36.764Z,102873.81
2018-12-24T14:50:05.949Z,102882.54
2018-12-24T14:52:37.776Z,102875.98
2018-12-24T14:55:06.681Z,102859.05
2018-12-24T14:57:35.652Z,102853.81
2018-12-24T15:00:05.046Z,102845.95
2018-12-24T15:02:33.839Z,102846.38
2018-12-24T15:05:02.861Z,102858.09
2018-12-24T15:07:31.774Z,102864.70
2018-12-24T15:10:00.772Z,102879.52
2018-12-24T15:12:29.574Z,102892.13
2018-12-24T15:14:58.359Z,102886.91
2018-12-24T15:17:27.723Z,102901.69
2018-12-24T15:19:56.513Z,102894.77
2018-12-24T15:22:25.405Z,102910.43
2018-12-24T15:24:54.440Z,102908.67
2018-12-24T15:27:23.217Z,102910.43
2018-12-24T15:29:52.320Z,102909.57
2018-12-24T15:32:21.100Z,102915.65
2018-12-24T15:34:49.972Z,102928.27
2018-12-24T15:37:19.213Z,102930.92
2018-12-24T15:40:24.615Z,102933.52
2018-12-24T15:42:58.398Z,102937.00
2018-12-24T16:06:00.580Z,102906.98
2018-12-24T16:08:29.686Z,102910.05
2018-12-24T16:10:58.889Z,102907.83
2018-12-24T16:13:27.957Z,102917.02
2018-12-24T16:15:56.812Z,102908.72
2018-12-24T16:18:25.605Z,102906.98
2018-12-24T16:20:54.932Z,102908.28
2018-12-24T16:23:23.954Z,102898.30
2018-12-24T16:25:52.754Z,102903.98
2018-12-24T16:28:21.691Z,102909.58
2018-12-24T16:30:50.785Z,102902.64
2018-12-24T16:33:19.540Z,102907.00
2018-12-24T16:35:48.317Z,102909.20
2018-12-24T16:38:17.075Z,102906.56
2018-12-24T16:40:45.983Z,102917.87
2018-12-24T16:43:14.830Z,102918.78
2018-12-24T16:45:43.782Z,102922.66
2018-12-24T16:48:12.612Z,102913.11
2018-12-24T16:50:41.992Z,102904.39
2018-12-24T16:53:12.068Z,102920.97
2018-12-24T16:55:41.093Z,102914.87
2018-12-24T16:58:13.262Z,102926.16
2018-12-24T17:00:42.055Z,102931.41
2018-12-24T17:03:18.186Z,102928.80
2018-12-24T17:05:48.188Z,102927.04
2018-12-24T17:08:16.956Z,102925.31
2018-12-24T17:10:45.923Z,102937.95
2018-12-24T17:13:14.739Z,102928.81
2018-12-24T17:15:43.895Z,102927.05
2018-12-24T17:18:13.426Z,102921.83
2018-12-24T17:20:44.719Z,102913.98
2018-12-24T17:23:13.761Z,102920.04
2018-12-24T17:25:43.380Z,102917.44
2018-12-24T17:28:12.261Z,102918.30
2018-12-24T17:30:41.074Z,102918.30
2018-12-24T17:33:09.887Z,102917.87
2018-12-24T17:35:38.660Z,102916.59
2018-12-24T17:38:07.695Z,102910.06
2018-12-24T17:40:36.524Z,102911.34
2018-12-24T17:43:05.312Z,102907.42
2018-12-24T17:45:34.117Z,102904.80
2018-12-24T17:48:03.443Z,102907.84
2018-12-24T17:50:32.195Z,102905.23
2018-12-24T17:53:01.027Z,102912.21
2018-12-24T17:55:30.080Z,102911.77
2018-12-24T17:57:58.900Z,102920.05
2018-12-24T18:00:27.718Z,102933.19
2018-12-24T18:02:56.542Z,102941.00
2018-12-24T18:05:25.341Z,102948.41
2018-12-24T18:07:54.069Z,102960.18
2018-12-24T18:10:22.891Z,102951.45
2018-12-24T18:12:51.768Z,102955.84
2018-12-24T18:15:20.598Z,102951.91
2018-12-24T18:17:49.653Z,102958.02
2018-12-24T18:20:18.446Z,102962.80
2018-12-24T18:22:47.242Z,102962.36
2018-12-24T18:25:16.076Z,102963.66
2018-12-24T18:27:44.843Z,102969.78
2018-12-24T18:30:13.680Z,102978.05
2018-12-24T18:32:42.824Z,102978.48
2018-12-24T18:35:11.656Z,102980.20
2018-12-24T18:37:40.614Z,102976.28
2018-12-24T18:40:09.503Z,102984.59
2018-12-24T18:42:38.281Z,102984.16
2018-12-24T18:45:07.226Z,102985.88
2018-12-24T18:47:36.304Z,102990.26
2018-12-24T18:50:06.333Z,102990.70
2018-12-24T18:52:35.231Z,102996.36
2018-12-24T18:55:04.217Z,103003.75
2018-12-24T18:57:33.004Z,102984.14
2018-12-24T19:00:01.772Z,103007.24
2018-12-24T19:02:30.627Z,103010.73
2018-12-24T19:05:00.242Z,103015.11
2018-12-24T19:07:29.086Z,103012.50
2018-12-24T19:09:57.844Z,103022.49
2018-12-24T19:12:26.743Z,103027.28
2018-12-24T19:14:55.802Z,103025.56
2018-12-24T19:17:24.569Z,103032.98
2018-12-24T19:19:53.353Z,103038.62
2018-12-24T19:22:22.100Z,103036.00
2018-12-24T19:24:50.906Z,103042.56
2018-12-24T19:27:19.883Z,103045.61
2018-12-24T19:29:48.791Z,103056.95
2018-12-24T19:32:17.577Z,103050.39
2018-12-24T19:34:46.450Z,103057.83
2018-12-24T19:37:15.803Z,103059.98
2018-12-24T19:39:44.575Z,103060.42
2018-12-24T19:42:13.538Z,103060.42
2018-12-24T19:44:43.044Z,103062.16
2018-12-24T19:47:12.224Z,103062.17
2018-12-24T19:49:41.005Z,103068.27
2018-12-24T19:52:12.267Z,103067.84
2018-12-24T19:54:41.314Z,103078.72
2018-12-24T19:57:10.102Z,103075.69
2018-12-24T19:59:39.006Z,103078.75
2018-12-24T20:02:07.830Z,103076.11
2018-12-24T20:04:36.659Z,103087.03
2018-12-24T20:07:05.440Z,103086.56
2018-12-24T20:09:34.844Z,103086.59
2018-12-24T20:12:05.067Z,103099.67
2018-12-24T20:14:34.010Z,103101.40
2018-12-24T20:17:02.781Z,103088.77
2018-12-24T20:19:32.026Z,103092.23
2018-12-24T20:22:00.944Z,103090.07
2018-12-24T20:24:33.889Z,103086.59
2018-12-24T20:27:02.926Z,103085.27
2018-12-24T20:29:59.156Z,103085.28
2018-12-24T20:32:28.372Z,103084.85
2018-12-24T20:34:57.187Z,103083.11
2018-12-24T20:37:26.104Z,103074.82
2018-12-24T20:39:54.913Z,103081.78
2018-12-24T20:42:23.718Z,103086.13
2018-12-24T20:44:52.580Z,103083.08
2018-12-24T20:47:21.402Z,103077.85
2018-12-24T20:49:50.181Z,103074.78
2018-12-24T20:52:18.998Z,103082.23
2018-12-24T20:54:47.866Z,103079.61
2018-12-24T20:57:16.625Z,103073.05
2018-12-24T20:59:45.720Z,103070.87
2018-12-24T21:02:14.487Z,103067.81
2018-12-24T21:04:43.422Z,103056.03
2018-12-24T21:07:12.529Z,103061.27
2018-12-24T21:09:41.304Z,103060.41
2018-12-24T21:12:10.116Z,103065.64
2018-12-24T21:14:38.981Z,103073.03
2018-12-24T21:17:07.806Z,103073.92
2018-12-24T21:19:36.863Z,103074.34
2018-12-24T21:22:05.991Z,103070.86
2018-12-24T21:24:35.360Z,103070.87
2018-12-24T21:27:06.746Z,103067.37
2018-12-24T21:29:35.594Z,103063.44
2018-12-24T21:32:04.892Z,103072.59
2018-12-24T21:34:33.684Z,103074.80
2018-12-24T21:37:02.531Z,103071.72
2018-12-24T21:39:31.815Z,103076.95
2018-12-24T21:42:00.601Z,103069.97
2018-12-24T21:44:29.384Z,103069.52
2018-12-24T21:46:58.160Z,103075.20
2018-12-24T21:49:27.134Z,103079.98
2018-12-24T21:51:56.044Z,103083.48
2018-12-24T21:54:24.850Z,103085.64
2018-12-24T21:56:53.777Z,103086.96
2018-12-24T21:59:22.565Z,103081.72
2018-12-24T22:01:51.707Z,103086.50
2018-12-24T22:04:20.491Z,103087.37
2018-12-24T22:06:49.266Z,103085.62
2018-12-24T22:09:21.683Z,103084.34
2018-12-24T22:11:51.976Z,103089.13
2018-12-24T22:14:20.770Z,103084.77
2018-12-24T22:16:49.573Z,103083.84
2018-12-24T22:19:19.144Z,103086.04
2018-12-24T22:21:48.057Z,103097.81
2018-12-24T22:24:24.671Z,103089.54
2018-12-24T22:26:54.599Z,103097.37
2018-12-24T22:29:23.459Z,103084.25
2018-12-24T22:31:53.140Z,103090.81
2018-12-24T22:34:22.032Z,103092.99
2018-12-24T22:36:50.949Z,103088.17
2018-12-24T22:39:19.957Z,103084.25
2018-12-24T22:41:48.732Z,103077.25
2018-12-24T22:44:18.022Z,103076.36
2018-12-24T22:46:49.545Z,103078.13
2018-12-24T22:49:18.413Z,103078.13
2018-12-24T22:51:47.621Z,103072.00
2018-12-24T22:54:16.752Z,103078.53
2018-12-24T22:56:46.777Z,103082.44
2018-12-24T22:59:15.621Z,103077.67
2018-12-24T23:01:44.481Z,103077.65
2018-12-24T23:04:13.401Z,103075.47
2018-12-24T23:06:42.242Z,103068.48
2018-12-24T23:09:12.723Z,103067.16
2018-12-24T23:11:41.488Z,103075.03
2018-12-24T23:14:10.494Z,103079.34
2018-12-24T23:16:39.383Z,103072.42
2018-12-24T23:19:09.597Z,103074.58
2018-12-24T23:21:38.639Z,103084.59
2018-12-24T23:24:09.527Z,103079.80
2018-12-24T23:26:38.423Z,103076.75
2018-12-24T23:29:07.442Z,103082.84
2018-12-24T23:31:36.246Z,103078.48
2018-12-24T23:34:06.000Z,103078.94
2018-12-24T23:36:34.955Z,103084.14
2018-12-24T23:39:05.564Z,103084.58
2018-12-24T23:41:34.746Z,103083.70
2018-12-24T23:44:05.517Z,103080.63
2018-12-24T23:46:35.028Z,103076.70
2018-12-24T23:49:04.280Z,103074.11
2018-12-24T23:51:33.107Z,103075.82
2018-12-24T23:54:02.484Z,103069.28
2018-12-24T23:56:31.640Z,103070.58
2018-12-24T23:59:00.645Z,103066.20
